National Weather Service United States Department of Commerce

Fire Weather Threats Continue in Southern California

A storm system passing over the west coast ridge and into the Great Basin the next couple of days will improve air quality across the Pacific Northwest, and bring a wintry mix to the northern Great Basin and northern Rockies. Gusty winds will increase fire weather threats across portions of northern California, and continue to exacerbate ongoing fires across Southern California. Read More >

                                      ZTL Airspace Summary / KGSO TAF                    For ATC Planning Purposes Only
ZTL Airspace Summary:
High pressure will build over ZTL. Expect VFR conditions under SCT/BKN mid-level and cirrus clouds over AL/GA/SC/NC and VFR/MVFR conditions over TN/VA. Surface winds will be mostly northwest to southwest at 3-12kts over AL/GA/SC and mostly north to southeast at 3-10kts over TN/VA/NC. Flight Hazards: LGT-MOD turbulence above FL200 over all ZTL. Occasional LGT Rime icing 130-FL210.

Updated:12/14/2017 8:55 PM
 

Greensboro Terminal Aerodrome Forecast:
 
FTUS41 KGSO 150521
KGSO 150520Z 1506/1606 05008KT P6SM FEW170
     FM150700 04005KT P6SM SCT250
     FM151200 05005KT P6SM BKN025
     FM152200 VRB04KT P6SM SCT250

 

GSO METAR:  
SAUS80 KGSO 150600
METAR KGSO 150554Z 05006KT 10SM CLR 02/M06 A2999 RMK AO2 SLP157
     T00171056 10078 20017 50003

Go to KGSO TAF TDA
Go to KGSO TAF TDA

GSO TRACON HAZARDS
GSO TRACON: SFC-12000
AVG CIG BASE WHERE REPORTED BLW 10000FT: NONE REPORTED
LOWEST REPORTED CIG: NONE REPORTED
LOWEST REPORTED FLIGHT CAT: VFR
METARS:
KGSO 150554Z 05006KT 10SM CLR 02/M06 A2999 RMK AO2 SLP157 T00171056 10078 20017 50003
KINT 150554Z AUTO 04007KT 10SM CLR 01/M06 A3000 RMK AO2 SLP160 T00111061 10067 20011 50002
KSIF 150605Z AUTO 00000KT 10SM CLR M03/M07 A3003 RMK AO2 T10271066
KEXX 150605Z AUTO 00000KT 10SM CLR 02/M05 A2999 RMK AO2 T00241046
KMTV 150615Z AUTO 00000KT 10SM CLR M04/M07 A3005 RMK AO2 T10361066
KBUY 150554Z AUTO 03005KT 10SM CLR 02/M05 A3001 RMK AO2 SLP162 T00171050 10067 20017 50002
KHBI 150620Z AUTO 04004KT 10SM CLR 03/M05 A3001 RMK AO2 T00301050
KMWK 150605Z AUTO 06006KT 10SM CLR 02/M05 A3001 RMK AO2 T00151053
KSCR 150600Z AUTO 02005KT 10SM CLR 02/M05 A3000 RMK AO2 T00191048

GSO TRACON HAZARD

Forecast Surface Map Loop / Collaborative Convective Forecast Product / Vertical Wind Profile
Weather Map

 

AIRMETs & SIGMETS/ Southeast Radar loop / Satellite Image (click on image to enlarge)
  Weather Map Southeast Radar Loop

satellite